Time;durP1;ratioP1;P1;durP2;ratioP2;P2;SDS_P1;SDS_P2;PMS_P1;PMS_P2;Temp;Humidity;BMP_temperature;BMP_pressure;BME280_temperature;BME280_humidity;BME280_pressure;Samples;Min_cycle;Max_cycle;Signal;HPM_P1;HPM_P2
2023/10/22 00:02:10;;;;;;;9.90;2.00;;;12.10;99.90;;;;;;4997230;28;20062;-85
2023/10/22 00:04:38;;;;;;;8.80;1.73;;;12.10;99.90;;;;;;4980043;28;20309;-85
2023/10/22 00:07:05;;;;;;;7.30;1.70;;;12.10;99.90;;;;;;4980758;28;20380;-86
2023/10/22 00:09:30;;;;;;;8.93;1.90;;;12.10;99.90;;;;;;4996552;28;20389;-85
2023/10/22 00:11:56;;;;;;;7.40;1.73;;;12.10;99.90;;;;;;4996669;28;20711;-85
2023/10/22 00:14:22;;;;;;;7.47;1.83;;;12.10;99.90;;;;;;4996351;28;20055;-85
2023/10/22 00:16:48;;;;;;;8.17;1.60;;;12.10;99.90;;;;;;4980032;28;20057;-85
2023/10/22 00:19:13;;;;;;;6.63;1.43;;;12.20;99.90;;;;;;4980342;28;20141;-85
2023/10/22 00:21:39;;;;;;;10.23;1.60;;;12.10;99.90;;;;;;4980345;28;20057;-85
2023/10/22 00:24:05;;;;;;;6.93;1.50;;;12.10;99.90;;;;;;4996227;28;20046;-85
2023/10/22 00:26:31;;;;;;;7.93;1.67;;;12.10;99.90;;;;;;4996393;28;20508;-85
2023/10/22 00:28:56;;;;;;;8.97;1.83;;;12.00;99.90;;;;;;4980452;28;20333;-85
2023/10/22 00:31:22;;;;;;;9.97;2.20;;;12.00;99.90;;;;;;4979455;28;20058;-85
2023/10/22 00:33:48;;;;;;;6.20;1.20;;;12.00;99.90;;;;;;4996081;28;20085;-84
2023/10/22 00:36:14;;;;;;;6.40;1.43;;;12.00;99.90;;;;;;4980016;28;20054;-85
2023/10/22 00:38:40;;;;;;;7.37;1.40;;;12.10;99.90;;;;;;4996179;28;20081;-85
2023/10/22 00:41:05;;;;;;;6.53;1.40;;;12.10;99.90;;;;;;4995826;28;20054;-85
2023/10/22 00:43:31;;;;;;;7.73;1.73;;;12.10;99.90;;;;;;4996080;28;20051;-85
2023/10/22 00:45:57;;;;;;;7.33;1.60;;;12.10;99.90;;;;;;4996026;28;20046;-84
2023/10/22 00:48:25;;;;;;;7.47;1.73;;;12.10;99.90;;;;;;4996155;28;20050;-85
2023/10/22 00:50:52;;;;;;;7.57;1.60;;;12.10;99.90;;;;;;4995902;28;20425;-84
2023/10/22 00:53:18;;;;;;;9.03;1.67;;;12.10;99.90;;;;;;4995656;28;20282;-85
2023/10/22 00:55:46;;;;;;;6.63;1.30;;;12.10;99.90;;;;;;4996822;28;20293;-84
2023/10/22 00:58:16;;;;;;;4.97;1.60;;;12.10;99.90;;;;;;4995378;28;20629;-84
2023/10/22 01:00:44;;;;;;;6.00;1.73;;;12.10;99.90;;;;;;4995712;28;20769;-85
2023/10/22 01:03:09;;;;;;;7.33;1.67;;;12.10;99.90;;;;;;4979482;28;20293;-84
2023/10/22 01:05:39;;;;;;;6.83;1.43;;;12.00;99.90;;;;;;4979418;28;20800;-84
2023/10/22 01:08:05;;;;;;;8.03;1.83;;;12.00;99.90;;;;;;4995567;28;20680;-85
2023/10/22 01:10:32;;;;;;;10.77;2.30;;;12.00;99.90;;;;;;4996146;28;20332;-83
2023/10/22 01:12:59;;;;;;;6.80;1.37;;;11.90;99.90;;;;;;4979323;28;20289;-84
2023/10/22 01:15:25;;;;;;;6.03;1.73;;;11.90;99.90;;;;;;4979576;28;20292;-86
2023/10/22 01:17:50;;;;;;;7.20;1.80;;;11.90;99.90;;;;;;4996965;28;20289;-85
2023/10/22 01:20:16;;;;;;;12.40;1.80;;;11.80;99.90;;;;;;4979373;28;20097;-85
2023/10/22 01:22:42;;;;;;;10.03;1.73;;;11.80;99.90;;;;;;4995061;28;20045;-85
2023/10/22 01:25:08;;;;;;;10.83;1.80;;;11.70;99.90;;;;;;4994996;28;20057;-85
2023/10/22 01:27:34;;;;;;;7.77;1.83;;;11.70;99.90;;;;;;4996054;28;20054;-85
2023/10/22 01:30:00;;;;;;;9.00;2.27;;;11.70;99.90;;;;;;4996369;28;20105;-85
2023/10/22 01:32:30;;;;;;;10.10;2.30;;;11.60;99.90;;;;;;4997180;28;20725;-85
2023/10/22 01:34:59;;;;;;;6.10;2.20;;;11.60;99.90;;;;;;4996097;28;20061;-84
2023/10/22 01:37:25;;;;;;;9.03;2.10;;;11.60;99.90;;;;;;4996053;28;20364;-84
2023/10/22 01:39:52;;;;;;;9.67;2.47;;;11.60;99.90;;;;;;4996000;28;20368;-85
2023/10/22 01:42:17;;;;;;;8.17;2.03;;;11.60;99.90;;;;;;4995221;28;20112;-84
2023/10/22 01:44:43;;;;;;;7.70;2.13;;;11.60;99.90;;;;;;4994944;28;20289;-84
2023/10/22 01:47:10;;;;;;;6.43;2.23;;;11.60;99.90;;;;;;4996393;28;20133;-84
2023/10/22 01:49:36;;;;;;;9.40;2.30;;;11.60;99.90;;;;;;4994488;28;20512;-84
2023/10/22 01:52:02;;;;;;;11.53;2.67;;;11.50;99.90;;;;;;4995560;28;20368;-82
2023/10/22 01:54:28;;;;;;;8.13;2.50;;;11.50;99.90;;;;;;4995760;28;20478;-82
2023/10/22 01:56:54;;;;;;;8.00;2.07;;;11.50;99.90;;;;;;4995439;28;20483;-82
2023/10/22 01:59:20;;;;;;;8.50;2.40;;;11.50;99.90;;;;;;4995653;28;20339;-82
2023/10/22 02:01:46;;;;;;;8.43;2.80;;;11.50;99.90;;;;;;4995630;28;20108;-82
2023/10/22 02:04:12;;;;;;;6.97;2.27;;;11.50;99.90;;;;;;4979269;28;20498;-82
2023/10/22 02:06:37;;;;;;;7.97;2.80;;;11.50;99.90;;;;;;4995539;28;20285;-82
2023/10/22 02:09:03;;;;;;;8.23;2.80;;;11.50;99.90;;;;;;4996054;28;20387;-82
2023/10/22 02:11:30;;;;;;;9.33;3.23;;;11.50;99.90;;;;;;4994138;28;20140;-82
2023/10/22 02:13:56;;;;;;;12.07;3.00;;;11.50;99.90;;;;;;4995430;28;20057;-82
2023/10/22 02:16:22;;;;;;;6.53;2.70;;;11.50;99.90;;;;;;4995212;28;20294;-82
2023/10/22 02:18:48;;;;;;;8.63;3.00;;;11.50;99.90;;;;;;4994215;28;20050;-83
2023/10/22 02:21:15;;;;;;;7.07;2.53;;;11.50;99.90;;;;;;4994076;28;20285;-83
2023/10/22 02:23:41;;;;;;;10.17;3.33;;;11.50;99.90;;;;;;4994263;28;20290;-83
2023/10/22 02:26:07;;;;;;;5.90;2.73;;;11.50;99.90;;;;;;4994539;28;20292;-83
2023/10/22 02:28:33;;;;;;;6.47;3.30;;;11.50;99.90;;;;;;4995205;28;20054;-83
2023/10/22 02:30:59;;;;;;;10.70;3.67;;;11.50;99.90;;;;;;4994649;28;20318;-83
2023/10/22 02:33:25;;;;;;;10.07;2.90;;;11.50;99.90;;;;;;4994980;28;20105;-84
2023/10/22 02:35:51;;;;;;;11.43;3.67;;;11.50;99.90;;;;;;4995081;28;20097;-83
2023/10/22 02:38:17;;;;;;;9.00;2.73;;;11.50;99.90;;;;;;4995763;28;20081;-83
2023/10/22 02:40:48;;;;;;;7.23;2.80;;;11.50;99.90;;;;;;4995015;28;20282;-83
2023/10/22 02:43:14;;;;;;;14.60;3.50;;;11.50;99.90;;;;;;4994991;28;20288;-83
2023/10/22 02:45:53;;;;;;;13.73;3.37;;;11.60;99.90;;;;;;4994460;28;20286;-82
2023/10/22 02:48:20;;;;;;;6.70;2.67;;;11.50;99.90;;;;;;4994874;28;20789;-82
2023/10/22 02:50:46;;;;;;;8.17;3.10;;;11.60;99.90;;;;;;4994742;28;20301;-82
2023/10/22 02:53:12;;;;;;;10.27;3.30;;;11.60;99.90;;;;;;4994678;28;20286;-82
2023/10/22 02:55:39;;;;;;;6.90;2.77;;;11.60;99.90;;;;;;4993492;28;20317;-83
2023/10/22 02:58:05;;;;;;;7.33;2.80;;;11.60;99.90;;;;;;4994663;28;20289;-83
2023/10/22 03:00:31;;;;;;;6.10;2.60;;;11.60;99.90;;;;;;4993599;28;20351;-84
2023/10/22 03:02:56;;;;;;;9.93;3.03;;;11.60;99.90;;;;;;4993579;28;20376;-85
2023/10/22 03:05:22;;;;;;;6.27;2.30;;;11.60;99.90;;;;;;4993101;28;20209;-84
2023/10/22 03:07:48;;;;;;;7.27;3.20;;;11.60;99.90;;;;;;4993252;28;20046;-84
2023/10/22 03:10:13;;;;;;;9.37;3.70;;;11.60;99.90;;;;;;4993072;28;20050;-83
2023/10/22 03:12:39;;;;;;;9.13;3.10;;;11.60;99.90;;;;;;4994163;28;20038;-83
2023/10/22 03:15:05;;;;;;;7.03;3.00;;;11.60;99.90;;;;;;4994911;28;20475;-82
2023/10/22 03:17:31;;;;;;;8.00;3.00;;;11.60;99.90;;;;;;4994347;28;20132;-84
2023/10/22 03:19:57;;;;;;;9.13;3.00;;;11.60;99.90;;;;;;4976953;28;20321;-84
2023/10/22 03:22:23;;;;;;;9.60;3.73;;;11.60;99.90;;;;;;4993258;28;20054;-83
2023/10/22 03:24:50;;;;;;;8.30;3.67;;;11.60;99.90;;;;;;4994286;28;20050;-84
2023/10/22 03:27:16;;;;;;;9.80;4.00;;;11.60;99.90;;;;;;4994237;28;20284;-84
2023/10/22 03:29:41;;;;;;;10.77;3.73;;;11.60;99.90;;;;;;4994129;28;20309;-83
2023/10/22 03:32:09;;;;;;;9.80;3.60;;;11.60;99.90;;;;;;4992752;28;20126;-82
2023/10/22 03:34:35;;;;;;;9.90;3.70;;;11.60;99.90;;;;;;4993989;28;20153;-83
2023/10/22 03:37:04;;;;;;;13.80;3.73;;;11.60;99.90;;;;;;4993215;28;20293;-81
2023/10/22 03:39:31;;;;;;;10.73;4.17;;;11.60;99.90;;;;;;4994128;28;20056;-82
2023/10/22 03:41:56;;;;;;;9.43;4.33;;;11.60;99.90;;;;;;4993095;28;20791;-82
2023/10/22 03:44:22;;;;;;;11.40;4.03;;;11.60;99.90;;;;;;4993445;28;20293;-83
2023/10/22 03:46:48;;;;;;;9.70;4.53;;;11.60;99.90;;;;;;4994053;28;20281;-85
2023/10/22 03:49:14;;;;;;;11.83;4.23;;;11.70;99.90;;;;;;4993972;28;20050;-85
2023/10/22 03:51:40;;;;;;;10.23;4.30;;;11.70;99.90;;;;;;4977111;28;20047;-86
2023/10/22 03:54:06;;;;;;;7.10;4.10;;;11.70;99.90;;;;;;4992999;28;20320;-86
2023/10/22 03:56:33;;;;;;;8.70;4.07;;;11.70;99.90;;;;;;4993941;28;20133;-84
2023/10/22 03:59:00;;;;;;;10.80;4.63;;;11.70;99.90;;;;;;4961188;28;20064;-81
2023/10/22 04:01:25;;;;;;;9.67;3.70;;;11.70;99.90;;;;;;4992769;28;20432;-82
2023/10/22 04:03:51;;;;;;;9.40;3.83;;;11.70;99.90;;;;;;4993911;28;20368;-82
2023/10/22 04:06:17;;;;;;;11.33;4.40;;;11.70;99.90;;;;;;4993954;28;20269;-80
2023/10/22 04:08:42;;;;;;;8.53;4.30;;;11.70;99.90;;;;;;4992971;28;20050;-82
2023/10/22 04:11:08;;;;;;;11.67;4.47;;;11.70;99.90;;;;;;4993825;28;20475;-82
2023/10/22 04:13:34;;;;;;;7.83;4.33;;;11.70;99.90;;;;;;4992726;28;20054;-82
2023/10/22 04:16:00;;;;;;;8.57;4.60;;;11.80;99.90;;;;;;4992866;28;20046;-83
2023/10/22 04:18:25;;;;;;;9.93;5.00;;;11.80;99.90;;;;;;4993806;28;20050;-83
2023/10/22 04:20:51;;;;;;;9.17;5.23;;;11.80;99.90;;;;;;4994288;28;20042;-84
2023/10/22 04:23:17;;;;;;;13.20;5.40;;;11.80;99.90;;;;;;4993726;28;20050;-85
2023/10/22 04:25:44;;;;;;;11.93;4.90;;;11.80;99.90;;;;;;4992472;28;20043;-86
2023/10/22 04:28:10;;;;;;;13.43;6.27;;;11.80;99.90;;;;;;4992750;28;20638;-85
2023/10/22 04:30:37;;;;;;;10.97;6.53;;;11.80;99.90;;;;;;4993399;28;20302;-86
2023/10/22 04:33:04;;;;;;;12.00;7.20;;;11.80;99.90;;;;;;4993710;28;20686;-87
2023/10/22 04:35:32;;;;;;;15.23;7.50;;;11.90;99.90;;;;;;4980786;28;20351;-86
2023/10/22 04:37:59;;;;;;;13.37;8.53;;;11.90;99.90;;;;;;4996478;28;20298;-88
2023/10/22 04:40:26;;;;;;;12.63;9.13;;;11.90;99.90;;;;;;4995858;28;20689;-87
2023/10/22 04:42:57;;;;;;;13.50;9.93;;;11.90;99.90;;;;;;4996134;28;20294;-87
2023/10/22 04:45:22;;;;;;;18.63;10.67;;;11.90;99.90;;;;;;4997639;28;20367;-89
2023/10/22 04:47:48;;;;;;;19.67;10.73;;;11.90;99.90;;;;;;4979806;28;20845;-87
2023/10/22 04:50:14;;;;;;;22.07;11.93;;;11.90;99.90;;;;;;4979615;28;20047;-87
2023/10/22 04:52:39;;;;;;;21.47;11.80;;;11.90;99.90;;;;;;4979711;28;20081;-88
2023/10/22 04:55:05;;;;;;;22.10;11.80;;;12.00;99.90;;;;;;4995856;28;20050;-87
2023/10/22 04:57:33;;;;;;;17.97;12.00;;;11.90;99.90;;;;;;4963632;28;20050;-87
2023/10/22 04:59:59;;;;;;;25.07;13.80;;;12.00;99.90;;;;;;4995752;28;20061;-88
2023/10/22 05:02:25;;;;;;;19.50;13.63;;;12.00;99.90;;;;;;4995710;28;20336;-88
2023/10/22 05:04:51;;;;;;;22.37;13.93;;;12.00;99.90;;;;;;4979186;28;20054;-87
2023/10/22 05:07:18;;;;;;;28.00;15.13;;;12.00;99.90;;;;;;4979421;28;20039;-88
2023/10/22 05:09:44;;;;;;;28.50;16.20;;;12.00;99.90;;;;;;4996562;28;20388;-87
2023/10/22 05:12:10;;;;;;;23.27;15.40;;;12.10;99.90;;;;;;4995622;28;20299;-87
2023/10/22 05:14:36;;;;;;;28.30;16.07;;;12.10;99.90;;;;;;4995752;28;20286;-87
2023/10/22 05:17:04;;;;;;;24.13;15.30;;;12.10;99.90;;;;;;4996033;28;20049;-87
2023/10/22 05:19:30;;;;;;;21.73;14.27;;;12.10;99.90;;;;;;4995445;28;20317;-87
2023/10/22 05:21:55;;;;;;;15.67;10.80;;;12.10;99.90;;;;;;4996321;28;20323;-87
2023/10/22 05:24:21;;;;;;;16.90;12.20;;;12.20;99.90;;;;;;4979125;28;20046;-87
2023/10/22 05:26:47;;;;;;;18.43;10.93;;;12.20;99.90;;;;;;4995085;28;20479;-85
2023/10/22 05:29:12;;;;;;;18.17;9.87;;;12.20;99.90;;;;;;4995962;28;20042;-81
2023/10/22 05:31:38;;;;;;;12.17;6.90;;;12.20;99.90;;;;;;4996153;28;20068;-82
2023/10/22 05:34:04;;;;;;;6.23;3.50;;;12.20;99.90;;;;;;4996047;28;20050;-82
2023/10/22 05:36:30;;;;;;;5.13;2.47;;;12.20;99.90;;;;;;4995077;28;20046;-82
2023/10/22 05:38:55;;;;;;;8.53;2.90;;;12.20;99.90;;;;;;4995715;28;20089;-83
2023/10/22 05:41:26;;;;;;;8.93;2.80;;;12.10;99.90;;;;;;4994772;28;20061;-84
2023/10/22 05:43:56;;;;;;;12.10;2.93;;;12.10;99.90;;;;;;4995905;28;20165;-85
2023/10/22 05:46:30;;;;;;;11.83;3.00;;;12.10;99.90;;;;;;4978383;28;20289;-83
2023/10/22 05:48:56;;;;;;;10.07;3.27;;;12.00;99.90;;;;;;4995891;28;20297;-82
2023/10/22 05:51:21;;;;;;;9.77;3.17;;;12.00;99.90;;;;;;4994579;28;20770;-84
2023/10/22 05:53:47;;;;;;;11.87;3.10;;;12.00;99.90;;;;;;4978881;28;20133;-83
2023/10/22 05:56:13;;;;;;;11.17;3.77;;;11.90;99.90;;;;;;4995108;28;20055;-84
2023/10/22 05:58:39;;;;;;;13.33;3.27;;;11.90;99.90;;;;;;4995781;28;20133;-84
2023/10/22 06:01:05;;;;;;;16.07;3.87;;;11.90;99.90;;;;;;4995732;28;20550;-84
2023/10/22 06:03:31;;;;;;;17.77;4.37;;;11.90;99.90;;;;;;4995625;28;20097;-82
2023/10/22 06:05:56;;;;;;;14.27;3.60;;;11.80;99.90;;;;;;4994577;28;20290;-82
2023/10/22 06:08:22;;;;;;;10.13;2.87;;;11.90;99.90;;;;;;4995528;28;20134;-82
2023/10/22 06:10:48;;;;;;;14.07;2.90;;;11.90;99.90;;;;;;4996182;28;20142;-82
2023/10/22 06:13:14;;;;;;;11.20;2.70;;;11.90;99.90;;;;;;4994740;28;20434;-83
2023/10/22 06:15:42;;;;;;;7.20;2.97;;;11.70;99.90;;;;;;4994415;28;20054;-83
2023/10/22 06:18:08;;;;;;;12.87;2.83;;;11.70;99.90;;;;;;4995361;28;20068;-83
2023/10/22 06:20:34;;;;;;;12.07;2.90;;;11.70;99.90;;;;;;4995089;28;20304;-83
2023/10/22 06:23:01;;;;;;;12.97;2.60;;;11.70;99.90;;;;;;4994491;28;20317;-83
2023/10/22 06:25:26;;;;;;;14.87;2.70;;;11.70;99.90;;;;;;4994066;28;20289;-83
2023/10/22 06:27:55;;;;;;;10.33;2.80;;;11.70;99.90;;;;;;4995149;28;20296;-83
2023/10/22 06:30:22;;;;;;;13.73;2.90;;;11.70;99.90;;;;;;4994802;28;20056;-85
2023/10/22 06:32:52;;;;;;;12.63;2.90;;;11.70;99.90;;;;;;4977760;28;20290;-84
2023/10/22 06:35:19;;;;;;;13.57;2.87;;;11.60;99.90;;;;;;4978166;28;20312;-84
2023/10/22 06:37:47;;;;;;;19.30;3.57;;;11.60;99.90;;;;;;4994057;28;20297;-85
2023/10/22 06:40:13;;;;;;;16.20;3.40;;;11.60;99.90;;;;;;4978303;28;20625;-84
2023/10/22 06:42:40;;;;;;;16.80;3.93;;;11.60;99.90;;;;;;4994896;28;20868;-84
2023/10/22 06:45:07;;;;;;;14.10;3.80;;;11.60;99.90;;;;;;4993587;28;20623;-84
2023/10/22 06:47:40;;;;;;;19.67;3.90;;;11.60;99.90;;;;;;4993770;28;20380;-84
2023/10/22 06:50:13;;;;;;;16.63;3.57;;;11.60;99.90;;;;;;4993655;28;20305;-83
2023/10/22 06:52:43;;;;;;;17.77;4.10;;;11.70;99.90;;;;;;4995068;28;20801;-83
2023/10/22 06:55:09;;;;;;;14.07;4.30;;;11.60;99.90;;;;;;4993769;28;20696;-83
2023/10/22 06:57:43;;;;;;;15.67;4.60;;;11.70;99.90;;;;;;4994590;28;20304;-83
2023/10/22 07:00:12;;;;;;;16.07;4.47;;;11.60;99.90;;;;;;4994319;28;20789;-83
2023/10/22 07:02:38;;;;;;;15.47;4.60;;;11.60;99.90;;;;;;4994566;28;20364;-82
2023/10/22 07:05:06;;;;;;;11.50;4.50;;;11.60;99.90;;;;;;4994936;28;20388;-83
2023/10/22 07:07:32;;;;;;;14.20;4.80;;;11.60;99.90;;;;;;4994350;28;20105;-84
2023/10/22 07:09:58;;;;;;;15.93;4.87;;;11.60;99.90;;;;;;4993360;28;20298;-88
2023/10/22 07:12:24;;;;;;;14.47;5.30;;;11.60;99.90;;;;;;4993172;28;20050;-83
2023/10/22 07:14:50;;;;;;;17.40;4.63;;;11.70;99.90;;;;;;4993396;28;20471;-84
2023/10/22 07:17:15;;;;;;;16.50;4.97;;;11.60;99.90;;;;;;4993187;28;20312;-85
2023/10/22 07:19:42;;;;;;;14.37;5.63;;;11.70;99.90;;;;;;4993217;28;20053;-85
2023/10/22 07:22:07;;;;;;;14.97;5.77;;;11.60;99.90;;;;;;4977180;28;20042;-83
2023/10/22 07:24:34;;;;;;;15.80;5.40;;;11.70;99.90;;;;;;4977431;28;20363;-82
2023/10/22 07:27:00;;;;;;;10.97;6.13;;;11.60;99.90;;;;;;4977251;28;20054;-82
2023/10/22 07:29:25;;;;;;;17.63;5.90;;;11.60;99.90;;;;;;4978396;28;20285;-81
2023/10/22 07:31:51;;;;;;;16.40;6.33;;;11.70;99.90;;;;;;4993013;28;20104;-81
2023/10/22 07:34:17;;;;;;;16.77;5.37;;;11.60;99.90;;;;;;4994288;28;20479;-81
2023/10/22 07:36:43;;;;;;;11.90;4.37;;;11.60;99.90;;;;;;4992860;28;20085;-82
2023/10/22 07:39:09;;;;;;;16.27;3.50;;;11.70;99.90;;;;;;4994023;28;20050;-81
2023/10/22 07:41:36;;;;;;;14.27;4.00;;;11.60;99.90;;;;;;4993885;28;20054;-81
2023/10/22 07:44:02;;;;;;;15.30;3.83;;;11.70;99.90;;;;;;4992765;28;20289;-82
2023/10/22 07:46:28;;;;;;;12.27;3.47;;;11.70;99.90;;;;;;4993061;28;20046;-82
2023/10/22 07:48:53;;;;;;;11.40;3.53;;;11.70;99.90;;;;;;4993606;28;20054;-81
2023/10/22 07:51:21;;;;;;;13.13;2.50;;;11.70;99.90;;;;;;4994222;28;20049;-81
2023/10/22 07:53:47;;;;;;;15.30;3.10;;;11.70;99.90;;;;;;4977408;28;20061;-82
2023/10/22 07:56:17;;;;;;;11.23;3.10;;;11.70;99.90;;;;;;4994221;28;20285;-81
2023/10/22 07:58:42;;;;;;;10.93;2.77;;;11.70;99.90;;;;;;4993564;28;20375;-81
2023/10/22 08:01:08;;;;;;;11.60;2.70;;;11.70;99.90;;;;;;4993732;28;20293;-82
2023/10/22 08:03:34;;;;;;;8.53;2.73;;;11.80;99.90;;;;;;4976802;28;20102;-86
2023/10/22 08:06:03;;;;;;;12.30;2.97;;;11.80;99.90;;;;;;4992886;28;20042;-82
2023/10/22 08:08:29;;;;;;;13.97;2.80;;;11.80;99.90;;;;;;4993770;28;20285;-82
2023/10/22 08:11:02;;;;;;;11.33;2.60;;;11.90;99.90;;;;;;4996477;28;20312;-82
2023/10/22 08:13:28;;;;;;;10.60;3.70;;;11.80;99.90;;;;;;4997526;28;20286;-82
2023/10/22 08:15:54;;;;;;;9.97;2.27;;;11.90;99.90;;;;;;4996950;28;20281;-82
2023/10/22 08:18:20;;;;;;;12.50;2.40;;;11.90;99.90;;;;;;4996588;28;20278;-82
2023/10/22 08:20:46;;;;;;;11.97;2.60;;;12.00;99.90;;;;;;4996528;28;20185;-82
2023/10/22 08:23:12;;;;;;;13.83;2.60;;;12.00;99.90;;;;;;4997585;28;20046;-83
2023/10/22 08:25:37;;;;;;;15.83;3.13;;;12.00;99.90;;;;;;4997306;28;20415;-83
2023/10/22 08:28:03;;;;;;;10.20;2.27;;;12.00;99.90;;;;;;4997952;28;20137;-84
2023/10/22 08:30:29;;;;;;;9.00;2.47;;;12.00;99.90;;;;;;4997074;28;20046;-82
2023/10/22 08:32:55;;;;;;;10.60;2.60;;;12.10;99.90;;;;;;4995788;28;20788;-83
2023/10/22 08:35:21;;;;;;;9.20;2.30;;;12.10;99.90;;;;;;4996879;28;20054;-83
2023/10/22 08:37:47;;;;;;;8.70;2.10;;;12.10;99.90;;;;;;4997282;28;20042;-81
2023/10/22 08:40:14;;;;;;;8.67;2.10;;;12.10;99.90;;;;;;4999024;28;20312;-81
2023/10/22 08:42:40;;;;;;;14.80;2.10;;;12.10;99.90;;;;;;4997199;28;20046;-83
2023/10/22 08:45:07;;;;;;;10.47;2.07;;;12.10;99.90;;;;;;4979920;28;20380;-82
2023/10/22 08:47:36;;;;;;;10.30;2.10;;;12.20;99.90;;;;;;4997196;28;20281;-82
2023/10/22 08:50:02;;;;;;;16.33;1.87;;;12.20;99.90;;;;;;4996980;28;20302;-83
2023/10/22 08:52:28;;;;;;;6.20;1.60;;;12.20;99.90;;;;;;4979554;28;20324;-82
2023/10/22 08:54:54;;;;;;;5.80;1.50;;;12.30;99.90;;;;;;4979859;28;20336;-84
2023/10/22 08:57:22;;;;;;;6.43;1.60;;;12.30;99.90;;;;;;4979860;28;20132;-80
2023/10/22 08:59:48;;;;;;;5.20;1.33;;;12.30;99.90;;;;;;4996009;28;20094;-81
2023/10/22 09:02:16;;;;;;;7.63;1.90;;;12.40;99.90;;;;;;4996841;28;20734;-81
2023/10/22 09:04:43;;;;;;;8.53;1.67;;;12.50;99.90;;;;;;4995797;28;20777;-81
2023/10/22 09:07:09;;;;;;;9.13;1.53;;;12.50;99.90;;;;;;4979190;28;20294;-81
2023/10/22 09:09:36;;;;;;;6.53;1.17;;;12.50;99.90;;;;;;4997412;28;20366;-81
2023/10/22 09:12:03;;;;;;;8.30;1.40;;;12.50;99.90;;;;;;4995063;28;20129;-82
2023/10/22 09:14:30;;;;;;;8.70;1.53;;;12.50;99.90;;;;;;4995850;28;20650;-81
2023/10/22 09:16:56;;;;;;;5.33;1.30;;;12.40;99.90;;;;;;4996328;28;20297;-80
2023/10/22 09:19:36;;;;;;;4.80;1.30;;;12.40;99.90;;;;;;4996006;28;20344;-79
2023/10/22 09:22:03;;;;;;;4.53;1.30;;;12.40;99.90;;;;;;4996709;28;20289;-79
2023/10/22 09:24:31;;;;;;;4.63;1.07;;;12.30;99.90;;;;;;4995445;28;20297;-81
2023/10/22 09:27:00;;;;;;;5.87;1.30;;;12.30;99.90;;;;;;4995182;28;20286;-81
2023/10/22 09:29:26;;;;;;;8.63;1.40;;;12.20;99.90;;;;;;4995073;28;20336;-82
2023/10/22 09:31:54;;;;;;;4.03;1.33;;;12.20;99.90;;;;;;4995054;28;20297;-79
2023/10/22 09:34:25;;;;;;;6.67;1.53;;;12.20;99.90;;;;;;4995244;28;20296;-79
2023/10/22 09:36:55;;;;;;;5.67;1.23;;;12.20;99.90;;;;;;4996235;28;20369;-79
2023/10/22 09:39:47;;;;;;;5.60;1.30;;;12.20;99.90;;;;;;4995173;28;20289;-79
2023/10/22 09:42:15;;;;;;;8.27;1.47;;;12.10;99.90;;;;;;4994271;28;20308;-78
2023/10/22 09:44:43;;;;;;;8.40;1.60;;;12.10;99.90;;;;;;4996853;28;20328;-79
2023/10/22 09:47:13;;;;;;;4.83;1.20;;;12.10;99.90;;;;;;4994906;28;20289;-80
2023/10/22 09:49:42;;;;;;;3.63;1.33;;;12.10;99.90;;;;;;4995121;28;20324;-80
2023/10/22 09:52:12;;;;;;;6.17;1.70;;;12.10;99.90;;;;;;4996492;28;20336;-80
2023/10/22 09:54:39;;;;;;;6.47;1.70;;;12.10;99.90;;;;;;4995884;28;20757;-79
2023/10/22 09:57:15;;;;;;;12.20;1.50;;;12.10;99.90;;;;;;4995050;28;20298;-78
2023/10/22 09:59:41;;;;;;;7.70;1.30;;;12.10;99.90;;;;;;4994838;28;20294;-79
2023/10/22 10:02:15;;;;;;;7.47;1.57;;;12.10;99.90;;;;;;4978539;28;20299;-79
2023/10/22 10:04:43;;;;;;;6.13;1.40;;;12.10;99.90;;;;;;4994987;28;20293;-80
2023/10/22 10:07:09;;;;;;;4.07;1.60;;;12.10;99.90;;;;;;4994849;28;20788;-80
2023/10/22 10:09:36;;;;;;;4.83;1.80;;;12.20;99.90;;;;;;4994285;28;20289;-79
2023/10/22 10:12:08;;;;;;;4.13;1.40;;;12.20;99.90;;;;;;4996057;28;20277;-79
2023/10/22 10:14:47;;;;;;;3.93;1.20;;;12.30;99.90;;;;;;4995998;28;20282;-79
2023/10/22 10:17:19;;;;;;;4.43;1.17;;;12.30;99.90;;;;;;4995238;28;20289;-77
2023/10/22 10:19:47;;;;;;;6.93;1.60;;;12.30;99.90;;;;;;4995380;28;20321;-79
2023/10/22 10:22:39;;;;;;;4.20;1.33;;;12.40;99.90;;;;;;4994107;28;20369;-84
2023/10/22 10:25:28;;;;;;;4.37;1.40;;;12.50;99.90;;;;;;4994216;28;20343;-83
2023/10/22 10:27:54;;;;;;;6.23;1.10;;;12.50;99.90;;;;;;4995215;28;20368;-82
2023/10/22 10:30:21;;;;;;;6.43;1.10;;;12.60;99.90;;;;;;4993646;28;20392;-83
2023/10/22 10:32:50;;;;;;;6.77;1.60;;;12.60;99.90;;;;;;4993006;28;20414;-82
2023/10/22 10:35:18;;;;;;;4.20;1.20;;;12.60;99.90;;;;;;4978591;28;20452;-82
2023/10/22 10:38:15;;;;;;;5.87;1.53;;;12.70;99.90;;;;;;4994025;28;20058;-82
2023/10/22 10:40:41;;;;;;;4.83;1.17;;;12.70;99.90;;;;;;4977791;28;20300;-82
2023/10/22 10:43:07;;;;;;;5.77;1.10;;;12.70;99.90;;;;;;4994961;28;20510;-82
2023/10/22 10:45:33;;;;;;;3.27;1.20;;;12.70;99.90;;;;;;4978445;28;20321;-80
2023/10/22 10:47:58;;;;;;;4.07;1.30;;;12.80;99.90;;;;;;4993861;28;20049;-81
2023/10/22 10:50:24;;;;;;;5.00;1.20;;;12.80;99.90;;;;;;4995521;28;20046;-81
2023/10/22 10:52:52;;;;;;;4.23;1.20;;;12.80;99.90;;;;;;4993834;28;20046;-80
2023/10/22 10:55:20;;;;;;;4.90;1.10;;;12.80;99.90;;;;;;4993717;28;20054;-81
2023/10/22 10:57:50;;;;;;;5.93;1.20;;;12.80;99.90;;;;;;4978133;28;20058;-80
2023/10/22 11:00:21;;;;;;;4.37;0.93;;;12.80;99.90;;;;;;4994964;28;20086;-80
2023/10/22 11:02:48;;;;;;;4.20;1.03;;;12.80;99.90;;;;;;4993573;28;20042;-81
2023/10/22 11:05:15;;;;;;;4.73;1.70;;;12.80;99.90;;;;;;4994569;28;20074;-82
2023/10/22 11:07:43;;;;;;;2.13;0.90;;;12.80;99.90;;;;;;4993885;28;20105;-83
2023/10/22 11:10:16;;;;;;;4.17;1.50;;;12.70;99.90;;;;;;4993159;28;20050;-84
2023/10/22 11:12:44;;;;;;;3.90;1.00;;;12.70;99.90;;;;;;4977316;28;20422;-83
2023/10/22 11:15:11;;;;;;;2.50;0.90;;;12.60;99.90;;;;;;4994173;28;20046;-84
2023/10/22 11:17:38;;;;;;;2.70;0.90;;;12.50;99.90;;;;;;4993732;28;20650;-82
2023/10/22 11:20:06;;;;;;;3.70;1.00;;;12.50;99.90;;;;;;4993623;28;20137;-83
2023/10/22 11:22:32;;;;;;;3.33;1.00;;;12.40;99.90;;;;;;4993175;28;20820;-82
2023/10/22 11:25:03;;;;;;;3.00;0.97;;;12.40;99.90;;;;;;4993133;28;20050;-83
2023/10/22 11:27:30;;;;;;;2.23;0.83;;;12.30;99.90;;;;;;4992858;28;20057;-82
2023/10/22 11:30:00;;;;;;;2.43;0.93;;;12.30;99.90;;;;;;4993158;28;20073;-82
2023/10/22 11:32:26;;;;;;;2.43;0.80;;;12.30;99.90;;;;;;4992975;28;20137;-83
2023/10/22 11:34:59;;;;;;;3.07;0.93;;;12.30;99.90;;;;;;4992964;28;20856;-82
2023/10/22 11:37:36;;;;;;;2.67;1.00;;;12.20;99.90;;;;;;4993549;28;20880;-83
2023/10/22 11:40:30;;;;;;;3.77;1.00;;;12.20;99.90;;;;;;4993470;28;20302;-83
2023/10/22 11:42:59;;;;;;;2.47;1.03;;;12.20;99.90;;;;;;4979170;28;20065;-82
2023/10/22 11:45:30;;;;;;;2.90;0.80;;;12.20;99.90;;;;;;4997242;28;20777;-81
2023/10/22 11:48:17;;;;;;;4.60;0.80;;;12.10;99.90;;;;;;4998016;28;20293;-81
2023/10/22 11:51:09;;;;;;;8.90;1.00;;;12.20;99.90;;;;;;4980784;28;20301;-81
2023/10/22 11:53:47;;;;;;;4.97;1.10;;;12.20;99.90;;;;;;4994578;28;20365;-84
2023/10/22 11:56:13;;;;;;;2.97;0.70;;;12.20;99.90;;;;;;4997748;28;20781;-83
2023/10/22 11:58:39;;;;;;;2.10;0.80;;;12.30;99.90;;;;;;4998098;28;20285;-82
2023/10/22 12:01:04;;;;;;;3.50;1.13;;;12.20;99.90;;;;;;4997228;28;20540;-83
2023/10/22 12:03:30;;;;;;;4.77;1.00;;;12.20;99.90;;;;;;4996693;28;20054;-81
2023/10/22 12:05:56;;;;;;;3.83;0.90;;;12.20;99.90;;;;;;4996363;28;20053;-80
2023/10/22 12:08:23;;;;;;;3.40;0.87;;;12.20;99.90;;;;;;4997958;28;20046;-83
2023/10/22 12:10:48;;;;;;;3.00;0.90;;;12.20;99.90;;;;;;4996518;28;20297;-83
2023/10/22 12:13:14;;;;;;;3.50;1.13;;;12.20;99.90;;;;;;4980785;28;20297;-78
2023/10/22 12:15:40;;;;;;;3.10;0.97;;;12.20;99.90;;;;;;4996736;28;20042;-81
2023/10/22 12:18:07;;;;;;;3.37;1.00;;;12.20;99.90;;;;;;4996630;28;20046;-78
2023/10/22 12:20:32;;;;;;;5.23;1.00;;;12.30;99.90;;;;;;4997852;28;20100;-78
2023/10/22 12:22:59;;;;;;;3.03;1.00;;;12.30;99.90;;;;;;4996894;28;20637;-84
2023/10/22 12:25:29;;;;;;;3.10;1.00;;;12.30;99.90;;;;;;4996525;28;20050;-77
2023/10/22 12:27:54;;;;;;;6.90;1.33;;;12.30;99.90;;;;;;4997527;28;20317;-79
2023/10/22 12:30:20;;;;;;;4.73;1.00;;;12.40;99.90;;;;;;4996150;28;20709;-79
2023/10/22 12:32:46;;;;;;;2.77;1.10;;;12.40;99.90;;;;;;4996896;28;20074;-81
2023/10/22 12:35:12;;;;;;;2.97;0.93;;;12.40;99.90;;;;;;4996127;28;20448;-81
2023/10/22 12:37:38;;;;;;;4.43;1.10;;;12.40;99.90;;;;;;4980140;28;20080;-84
2023/10/22 12:40:05;;;;;;;5.17;1.00;;;12.40;99.90;;;;;;4997198;28;20687;-81
2023/10/22 12:42:31;;;;;;;5.87;1.23;;;12.40;99.90;;;;;;4996255;28;20073;-82
2023/10/22 12:44:57;;;;;;;2.97;1.23;;;12.50;99.90;;;;;;4995753;28;20635;-81